Time;durP1;ratioP1;P1;durP2;ratioP2;P2;SDS_P1;SDS_P2;PMS_P1;PMS_P2;Temp;Humidity;BMP_temperature;BMP_pressure;BME280_temperature;BME280_humidity;BME280_pressure;Samples;Min_cycle;Max_cycle;Signal;HPM_P1;HPM_P2
2023/09/29 00:02:31;;;;;;;21.20;15.30;;;;;;;15.48;84.41;101246.49;105743;1266;99401;-83
2023/09/29 00:05:18;;;;;;;16.90;13.80;;;;;;;15.41;84.41;101245.20;105487;1265;98484;-84
2023/09/29 00:08:06;;;;;;;21.80;14.40;;;;;;;15.34;84.52;101245.04;107108;1261;99272;-83
2023/09/29 00:10:52;;;;;;;20.80;14.30;;;;;;;15.26;84.44;101241.77;105841;1266;97874;-83
2023/09/29 00:13:38;;;;;;;17.80;14.00;;;;;;;15.18;84.60;101239.86;105481;1261;101930;-84
2023/09/29 00:16:23;;;;;;;22.00;14.20;;;;;;;15.12;84.73;101237.39;105519;1262;99085;-85
2023/09/29 00:19:09;;;;;;;20.70;15.20;;;;;;;15.08;85.00;101237.08;105633;1266;99066;-84
2023/09/29 00:21:54;;;;;;;19.80;14.40;;;;;;;15.05;85.06;101233.86;105582;1260;97990;-84
2023/09/29 00:24:40;;;;;;;22.30;15.40;;;;;;;15.02;85.02;101237.92;105287;1264;98369;-85
2023/09/29 00:27:25;;;;;;;20.00;15.30;;;;;;;14.97;85.10;101235.45;105560;1260;101320;-82
2023/09/29 00:30:12;;;;;;;20.80;15.60;;;;;;;14.94;85.40;101239.50;105712;1262;100945;-83
2023/09/29 00:32:57;;;;;;;24.60;16.30;;;;;;;14.91;85.82;101237.84;105597;1260;99100;-82
2023/09/29 00:35:43;;;;;;;25.70;14.70;;;;;;;14.90;85.97;101235.54;105833;1260;97976;-82
2023/09/29 00:38:29;;;;;;;18.20;14.60;;;;;;;14.86;86.03;101234.39;105647;1261;98518;-83
2023/09/29 00:41:14;;;;;;;22.40;14.70;;;;;;;14.80;86.09;101229.76;105546;1262;103150;-84
2023/09/29 00:44:00;;;;;;;21.80;15.80;;;;;;;14.75;85.74;101227.58;105691;1261;100148;-84
2023/09/29 00:46:46;;;;;;;19.30;14.10;;;;;;;14.69;85.48;101224.55;105532;1266;99108;-84
2023/09/29 00:49:31;;;;;;;16.80;14.00;;;;;;;14.64;85.70;101225.02;105711;1265;97916;-82
2023/09/29 00:52:17;;;;;;;20.80;13.30;;;;;;;14.60;85.70;101226.68;105545;1261;98494;-82
2023/09/29 00:55:10;;;;;;;21.10;15.30;;;;;;;14.55;85.83;101225.16;105776;1261;101397;-83
2023/09/29 00:57:59;;;;;;;20.20;15.30;;;;;;;14.52;86.53;101224.02;105680;1261;99157;-83
2023/09/29 01:00:45;;;;;;;21.10;14.30;;;;;;;14.50;86.46;101227.42;106117;1261;99015;-83
2023/09/29 01:03:30;;;;;;;18.80;13.50;;;;;;;14.46;86.58;101227.42;105584;1264;98032;-84
2023/09/29 01:06:17;;;;;;;24.40;13.90;;;;;;;14.41;86.60;101229.52;105661;1267;97847;-82
2023/09/29 01:09:04;;;;;;;21.00;14.00;;;;;;;14.35;86.58;101229.70;105604;1261;102091;-83
2023/09/29 01:11:52;;;;;;;18.90;13.40;;;;;;;14.30;86.34;101227.49;105581;1262;100553;-84
2023/09/29 01:14:37;;;;;;;15.10;12.60;;;;;;;14.25;86.32;101227.35;105578;1265;99098;-82
2023/09/29 01:17:24;;;;;;;18.50;12.60;;;;;;;14.21;86.17;101227.77;105825;1264;97969;-83
2023/09/29 01:20:18;;;;;;;19.90;13.30;;;;;;;14.17;86.22;101225.34;105647;1266;98425;-83
2023/09/29 01:23:05;;;;;;;19.20;14.10;;;;;;;14.15;86.27;101222.09;105739;1265;102006;-84
2023/09/29 01:25:50;;;;;;;19.20;14.10;;;;;;;14.12;86.15;101223.69;105554;1267;100454;-85
2023/09/29 01:28:36;;;;;;;23.90;14.40;;;;;;;14.10;86.38;101220.71;105620;1264;99578;-85
2023/09/29 01:31:22;;;;;;;20.20;14.80;;;;;;;14.10;86.83;101215.41;105796;1266;98000;-85
2023/09/29 01:34:07;;;;;;;29.40;18.20;;;;;;;14.08;86.69;101210.80;105635;1262;98509;-83
2023/09/29 01:36:56;;;;;;;27.80;17.60;;;;;;;14.06;87.23;101210.27;105873;1264;101400;-83
2023/09/29 01:39:42;;;;;;;25.90;16.90;;;;;;;14.05;87.31;101213.92;105713;1264;99264;-83
2023/09/29 01:42:28;;;;;;;21.60;16.20;;;;;;;14.02;87.37;101209.76;105609;1263;98891;-84
2023/09/29 01:45:14;;;;;;;20.40;15.40;;;;;;;14.00;87.58;101211.05;105657;1266;98564;-84
2023/09/29 01:48:02;;;;;;;25.90;16.80;;;;;;;13.99;87.39;101210.80;105515;1261;98508;-83
2023/09/29 01:50:48;;;;;;;21.80;17.00;;;;;;;13.98;87.53;101205.98;105615;1262;102192;-84
2023/09/29 01:53:34;;;;;;;22.70;16.10;;;;;;;13.96;87.38;101208.70;105749;1260;99945;-83
2023/09/29 01:56:21;;;;;;;22.10;16.50;;;;;;;13.92;87.39;101210.38;105599;1266;97950;-82
2023/09/29 01:59:07;;;;;;;23.20;15.90;;;;;;;13.90;87.53;101209.20;105655;1262;99259;-83
2023/09/29 02:01:54;;;;;;;24.90;16.30;;;;;;;13.88;87.49;101208.51;105754;1261;98005;-83
2023/09/29 02:04:40;;;;;;;24.80;17.30;;;;;;;13.84;87.31;101208.43;105760;1267;101465;-83
2023/09/29 02:07:25;;;;;;;20.70;15.80;;;;;;;13.80;87.23;101210.71;105741;1264;100198;-83
2023/09/29 02:10:12;;;;;;;21.90;16.40;;;;;;;13.77;87.33;101209.65;105557;1261;97953;-84
2023/09/29 02:12:59;;;;;;;25.70;16.80;;;;;;;13.75;87.01;101208.17;108034;1261;95499;-84
2023/09/29 02:15:44;;;;;;;19.30;15.50;;;;;;;13.72;87.52;101206.70;107632;1264;96029;-84
2023/09/29 02:18:30;;;;;;;23.20;16.70;;;;;;;13.72;87.43;101204.61;105666;1260;103071;-84
2023/09/29 02:21:22;;;;;;;22.10;16.10;;;;;;;13.69;87.31;101202.93;105640;1261;99236;-84
2023/09/29 02:24:08;;;;;;;21.20;15.60;;;;;;;13.66;87.46;101204.98;105632;1262;98065;-84
2023/09/29 02:26:55;;;;;;;20.40;16.30;;;;;;;13.64;87.25;101202.22;105735;1266;97968;-83
2023/09/29 02:29:41;;;;;;;22.70;16.10;;;;;;;13.62;87.47;101202.87;105692;1264;98338;-83
2023/09/29 02:32:27;;;;;;;24.60;16.80;;;;;;;13.60;87.36;101203.67;105756;1260;102711;-84
2023/09/29 02:35:13;;;;;;;24.10;16.60;;;;;;;13.56;87.19;101200.99;105526;1261;99196;-84
2023/09/29 02:37:59;;;;;;;25.90;16.90;;;;;;;13.55;87.42;101198.07;105605;1260;98068;-82
2023/09/29 02:40:46;;;;;;;26.50;16.20;;;;;;;13.54;87.54;101199.71;105755;1261;97908;-83
2023/09/29 02:43:32;;;;;;;21.80;16.50;;;;;;;13.51;87.72;101197.70;106908;1264;96459;-85
2023/09/29 02:46:17;;;;;;;27.30;16.80;;;;;;;13.50;87.79;101200.92;105616;1261;101511;-83
2023/09/29 02:49:07;;;;;;;22.90;15.30;;;;;;;13.48;87.65;101196.14;105623;1261;100447;-83
2023/09/29 02:51:53;;;;;;;22.40;15.80;;;;;;;13.46;87.69;101194.91;105689;1261;98858;-83
2023/09/29 02:54:39;;;;;;;25.30;16.70;;;;;;;13.45;87.58;101195.15;105779;1264;97984;-82
2023/09/29 02:57:25;;;;;;;22.40;16.30;;;;;;;13.41;87.57;101194.49;105716;1260;97990;-82
2023/09/29 03:00:18;;;;;;;20.40;15.80;;;;;;;13.39;87.67;101198.19;105759;1261;101332;-82
2023/09/29 03:03:06;;;;;;;20.10;15.50;;;;;;;13.36;87.68;101188.18;105705;1260;99112;-83
2023/09/29 03:05:53;;;;;;;22.20;15.90;;;;;;;13.35;87.72;101192.64;105836;1264;99655;-82
2023/09/29 03:08:39;;;;;;;20.90;15.60;;;;;;;13.33;87.59;101194.70;105627;1264;100084;-83
2023/09/29 03:11:25;;;;;;;21.50;16.30;;;;;;;13.30;87.58;101198.58;105677;1261;98058;-83
2023/09/29 03:14:11;;;;;;;23.70;15.90;;;;;;;13.27;87.82;101198.05;105504;1261;102116;-83
2023/09/29 03:17:03;;;;;;;20.20;15.50;;;;;;;13.25;87.77;101200.02;106014;1260;99304;-83
2023/09/29 03:19:49;;;;;;;21.40;15.60;;;;;;;13.21;87.84;101202.04;105808;1266;98762;-84
2023/09/29 03:22:37;;;;;;;25.20;15.30;;;;;;;13.17;87.93;101199.67;105682;1264;97916;-83
2023/09/29 03:25:23;;;;;;;22.60;15.60;;;;;;;13.14;88.07;101197.33;105891;1260;99206;-83
2023/09/29 03:28:09;;;;;;;23.60;15.60;;;;;;;13.12;88.14;101196.64;105507;1262;102665;-85
2023/09/29 03:30:55;;;;;;;28.60;16.90;;;;;;;13.10;88.11;101194.21;107393;1261;99057;-84
2023/09/29 03:33:42;;;;;;;24.30;15.90;;;;;;;13.08;88.26;101192.88;105595;1262;97971;-82
2023/09/29 03:36:30;;;;;;;22.10;16.40;;;;;;;13.07;88.38;101194.14;105808;1261;97905;-83
2023/09/29 03:39:17;;;;;;;23.70;16.20;;;;;;;13.06;88.31;101193.48;105747;1261;98465;-83
2023/09/29 03:42:03;;;;;;;20.70;16.00;;;;;;;13.06;88.40;101192.63;105728;1260;101436;-83
2023/09/29 03:44:49;;;;;;;22.20;16.00;;;;;;;13.05;88.45;101191.86;105695;1261;100403;-83
2023/09/29 03:47:34;;;;;;;23.10;16.00;;;;;;;13.03;88.54;101187.53;105654;1262;99047;-83
2023/09/29 03:50:20;;;;;;;20.30;15.80;;;;;;;12.99;88.54;101187.36;105812;1260;97977;-81
2023/09/29 03:53:05;;;;;;;21.20;15.20;;;;;;;12.96;88.56;101188.27;105723;1261;98622;-82
2023/09/29 03:55:52;;;;;;;26.20;16.00;;;;;;;12.94;88.38;101183.88;105621;1260;101447;-82
2023/09/29 03:58:38;;;;;;;23.40;17.00;;;;;;;12.92;88.45;101184.14;105932;1260;100307;-84
2023/09/29 04:01:25;;;;;;;26.50;17.40;;;;;;;12.91;88.61;101179.59;105610;1263;97886;-82
2023/09/29 04:04:11;;;;;;;24.60;16.50;;;;;;;12.90;88.78;101176.64;105611;1265;98075;-83
2023/09/29 04:06:57;;;;;;;23.30;16.40;;;;;;;12.88;88.91;101174.72;105782;1261;97980;-84
2023/09/29 04:09:43;;;;;;;25.80;16.10;;;;;;;12.88;89.08;101176.23;105545;1262;102707;-84
2023/09/29 04:12:28;;;;;;;23.10;17.50;;;;;;;12.87;89.20;101177.72;105595;1260;100055;-85
2023/09/29 04:15:15;;;;;;;22.20;17.30;;;;;;;12.85;89.26;101180.63;105713;1264;98761;-85
2023/09/29 04:18:00;;;;;;;27.50;17.30;;;;;;;12.83;89.25;101180.80;105639;1264;99238;-85
2023/09/29 04:20:46;;;;;;;24.20;16.60;;;;;;;12.81;89.25;101181.06;106013;1261;98446;-84
2023/09/29 04:23:32;;;;;;;25.50;17.50;;;;;;;12.78;89.20;101183.01;105725;1267;102750;-84
2023/09/29 04:26:19;;;;;;;26.90;17.20;;;;;;;12.76;89.11;101179.27;105658;1264;107782;-84
2023/09/29 04:29:05;;;;;;;25.10;17.00;;;;;;;12.75;88.96;101178.38;105785;1260;99119;-84
2023/09/29 04:31:51;;;;;;;25.00;17.60;;;;;;;12.72;89.33;101179.39;105657;1261;98065;-84
2023/09/29 04:34:37;;;;;;;25.30;17.40;;;;;;;12.71;89.51;101180.27;105578;1262;98458;-84
2023/09/29 04:37:22;;;;;;;23.60;16.00;;;;;;;12.69;89.69;101179.55;105551;1265;101549;-84
2023/09/29 04:40:08;;;;;;;25.20;17.00;;;;;;;12.68;89.94;101177.25;105722;1266;100429;-84
2023/09/29 04:42:54;;;;;;;22.80;15.50;;;;;;;12.66;89.91;101176.83;105727;1265;98594;-84
2023/09/29 04:45:40;;;;;;;20.40;16.60;;;;;;;12.65;89.86;101177.80;105662;1261;97984;-85
2023/09/29 04:48:25;;;;;;;21.80;16.60;;;;;;;12.65;90.21;101176.20;105671;1266;97994;-85
2023/09/29 04:51:10;;;;;;;28.80;16.90;;;;;;;12.64;90.22;101176.27;105727;1264;102616;-85
2023/09/29 04:53:56;;;;;;;24.70;17.40;;;;;;;12.64;90.75;101176.27;105758;1261;99213;-84
2023/09/29 04:56:41;;;;;;;23.90;17.10;;;;;;;12.64;90.71;101176.59;105620;1260;98561;-83
2023/09/29 04:59:27;;;;;;;23.10;17.50;;;;;;;12.64;90.66;101176.50;105675;1267;98020;-84
2023/09/29 05:02:13;;;;;;;24.00;17.20;;;;;;;12.63;90.66;101175.49;105880;1262;99529;-84
2023/09/29 05:04:59;;;;;;;27.00;18.00;;;;;;;12.63;91.12;101175.49;105752;1261;101435;-83
2023/09/29 05:07:45;;;;;;;25.10;17.50;;;;;;;12.63;91.31;101176.94;105631;1262;100460;-85
2023/09/29 05:10:30;;;;;;;25.50;16.70;;;;;;;12.63;91.27;101175.87;105769;1261;99643;-83
2023/09/29 05:13:15;;;;;;;26.20;16.80;;;;;;;12.65;91.31;101176.05;105611;1261;98045;-83
2023/09/29 05:16:01;;;;;;;26.60;17.40;;;;;;;12.67;91.62;101174.02;105712;1261;97988;-84
2023/09/29 05:18:49;;;;;;;29.60;17.90;;;;;;;12.69;91.92;101172.80;105761;1262;102175;-82
2023/09/29 05:21:36;;;;;;;23.60;17.50;;;;;;;12.72;92.35;101173.92;105549;1264;100429;-83
2023/09/29 05:24:22;;;;;;;28.00;17.30;;;;;;;12.74;92.35;101175.10;105776;1266;98093;-84
2023/09/29 05:27:07;;;;;;;23.20;18.00;;;;;;;12.76;92.33;101176.83;105794;1264;98022;-83
2023/09/29 05:29:53;;;;;;;21.60;17.90;;;;;;;12.78;92.60;101176.94;105706;1261;98707;-83
2023/09/29 05:32:39;;;;;;;24.90;19.30;;;;;;;12.82;92.94;101180.02;105672;1264;102479;-83
2023/09/29 05:35:25;;;;;;;25.60;18.60;;;;;;;12.87;93.31;101181.85;105702;1262;100453;-84
2023/09/29 05:38:10;;;;;;;25.70;17.70;;;;;;;12.92;93.82;101181.73;105715;1261;97924;-83
2023/09/29 05:40:55;;;;;;;36.80;20.80;;;;;;;12.98;93.75;101184.44;105635;1266;98060;-84
2023/09/29 05:43:41;;;;;;;27.70;21.00;;;;;;;13.03;94.30;101185.23;105690;1261;98426;-85
2023/09/29 05:46:26;;;;;;;31.60;21.50;;;;;;;13.08;94.62;101180.30;105751;1261;101432;-83
2023/09/29 05:49:12;;;;;;;31.80;21.80;;;;;;;13.14;94.74;101179.45;105953;1264;100942;-83
2023/09/29 05:51:58;;;;;;;31.30;22.60;;;;;;;13.20;95.29;101178.19;105817;1261;98022;-84
2023/09/29 05:54:43;;;;;;;29.30;21.10;;;;;;;13.26;95.37;101182.07;105619;1262;97928;-83
2023/09/29 05:57:28;;;;;;;36.50;23.20;;;;;;;13.32;95.78;101179.56;105887;1262;97917;-85
2023/09/29 06:00:14;;;;;;;28.40;21.80;;;;;;;13.38;96.43;101177.71;105781;1260;102920;-84
2023/09/29 06:03:00;;;;;;;31.70;22.00;;;;;;;13.44;96.71;101181.73;105810;1267;99106;-84
2023/09/29 06:05:45;;;;;;;29.30;22.60;;;;;;;13.50;97.34;101185.80;105721;1264;99333;-83
2023/09/29 06:08:31;;;;;;;33.20;22.70;;;;;;;13.56;97.49;101185.27;105850;1261;97975;-84
2023/09/29 06:11:17;;;;;;;35.70;23.00;;;;;;;13.61;97.55;101184.18;105946;1262;98396;-83
2023/09/29 06:14:03;;;;;;;29.40;22.90;;;;;;;13.67;97.91;101183.24;105660;1261;101938;-83
2023/09/29 06:16:48;;;;;;;36.00;23.30;;;;;;;13.74;97.95;101182.37;105864;1263;99108;-82
2023/09/29 06:19:33;;;;;;;32.30;22.60;;;;;;;13.81;98.51;101185.66;105854;1261;99461;-83
2023/09/29 06:22:18;;;;;;;32.70;23.70;;;;;;;13.88;98.81;101179.51;105521;1261;98427;-82
2023/09/29 06:25:04;;;;;;;30.60;23.20;;;;;;;13.96;99.06;101181.43;105677;1261;98501;-83
2023/09/29 06:27:50;;;;;;;39.10;25.00;;;;;;;14.04;99.38;101184.40;105720;1262;101461;-83
2023/09/29 06:30:36;;;;;;;35.20;24.80;;;;;;;14.12;99.66;101187.07;105767;1261;100245;-86
2023/09/29 06:33:22;;;;;;;33.30;24.60;;;;;;;14.20;99.98;101191.23;106265;1261;97975;-85
2023/09/29 06:36:07;;;;;;;31.80;23.80;;;;;;;14.27;100.00;101191.23;106249;1266;97901;-84
2023/09/29 06:38:53;;;;;;;32.70;23.10;;;;;;;14.35;100.00;101192.75;105705;1260;98535;-83
2023/09/29 06:41:39;;;;;;;31.90;23.10;;;;;;;14.42;100.00;101186.38;105619;1266;102800;-85
2023/09/29 06:44:26;;;;;;;33.40;24.30;;;;;;;14.50;100.00;101182.11;105546;1261;99176;-85
2023/09/29 06:47:12;;;;;;;30.00;22.90;;;;;;;14.59;100.00;101184.58;105495;1261;106346;-85
2023/09/29 06:49:57;;;;;;;32.90;23.90;;;;;;;14.66;100.00;101183.13;105579;1262;98464;-85
2023/09/29 06:52:43;;;;;;;37.00;25.60;;;;;;;14.75;100.00;101185.00;105625;1266;98594;-85
2023/09/29 06:55:29;;;;;;;40.10;24.50;;;;;;;14.83;100.00;101183.38;105707;1264;103719;-83
2023/09/29 06:58:14;;;;;;;34.20;23.30;;;;;;;14.92;100.00;101185.00;105700;1261;99182;-84
2023/09/29 07:01:01;;;;;;;39.30;24.40;;;;;;;15.02;100.00;101184.76;105761;1260;99017;-84
2023/09/29 07:03:47;;;;;;;37.60;22.70;;;;;;;15.12;100.00;101183.25;105781;1262;98707;-84
2023/09/29 07:06:33;;;;;;;33.30;23.70;;;;;;;15.22;100.00;101183.78;105648;1262;98182;-84
2023/09/29 07:09:19;;;;;;;37.50;24.70;;;;;;;15.32;100.00;101182.06;105845;1265;101419;-84
2023/09/29 07:12:06;;;;;;;35.00;24.10;;;;;;;15.43;100.00;101187.73;105760;1264;99155;-85
2023/09/29 07:14:52;;;;;;;35.90;22.70;;;;;;;15.54;100.00;101189.02;105385;1261;98033;-83
2023/09/29 07:17:37;;;;;;;29.60;22.50;;;;;;;15.64;100.00;101188.23;105646;1261;98737;-82
2023/09/29 07:20:22;;;;;;;33.60;23.70;;;;;;;15.74;100.00;101191.46;105613;1262;98448;-83
2023/09/29 07:23:08;;;;;;;32.40;21.20;;;;;;;15.86;100.00;101197.20;105509;1261;101583;-84
2023/09/29 07:25:54;;;;;;;34.00;22.30;;;;;;;16.00;100.00;101202.16;105560;1262;100202;-87
2023/09/29 07:28:40;;;;;;;29.70;19.10;;;;;;;16.12;100.00;101198.63;105989;1261;98029;-85
2023/09/29 07:31:45;;;;;;;35.40;20.30;;;;;;;16.24;100.00;101200.00;105887;1267;97981;-89
2023/09/29 07:34:31;;;;;;;31.80;21.00;;;;;;;16.37;100.00;101204.69;106291;1264;96620;-87
2023/09/29 07:37:17;;;;;;;29.70;20.60;;;;;;;16.50;100.00;101203.11;106288;1264;102106;-88
2023/09/29 07:40:03;;;;;;;33.60;19.90;;;;;;;16.60;100.00;101204.84;105852;1264;100910;-87
2023/09/29 07:42:49;;;;;;;27.80;20.00;;;;;;;16.72;100.00;101205.70;105847;1267;100149;-84
2023/09/29 07:45:35;;;;;;;28.50;19.80;;;;;;;16.84;100.00;101205.63;106120;1261;97900;-86
2023/09/29 07:48:22;;;;;;;38.60;20.40;;;;;;;16.96;100.00;101206.23;105901;1262;98432;-84
2023/09/29 07:51:08;;;;;;;27.00;18.30;;;;;;;17.08;100.00;101204.57;105798;1262;103351;-86
2023/09/29 07:53:54;;;;;;;28.70;19.10;;;;;;;17.22;100.00;101201.06;105611;1267;99187;-86
2023/09/29 07:56:40;;;;;;;26.10;19.40;;;;;;;17.35;100.00;101200.70;105719;1267;98391;-86
2023/09/29 07:59:26;;;;;;;25.10;17.40;;;;;;;17.49;100.00;101194.67;105978;1262;98023;-88
2023/09/29 08:02:11;;;;;;;26.20;16.90;;;;;;;17.62;100.00;101192.20;105894;1261;98420;-86
2023/09/29 08:04:58;;;;;;;24.20;16.20;;;;;;;17.77;100.00;101192.06;106051;1262;102068;-88
2023/09/29 08:07:43;;;;;;;23.10;16.90;;;;;;;17.93;100.00;101190.70;105943;1262;101360;-83
2023/09/29 08:10:29;;;;;;;25.50;17.00;;;;;;;18.08;99.91;101189.27;105912;1264;98400;-84
2023/09/29 08:13:16;;;;;;;26.60;16.10;;;;;;;18.21;99.93;101189.42;106106;1263;98016;-85
2023/09/29 08:16:02;;;;;;;26.40;17.00;;;;;;;18.34;99.96;101189.91;105739;1264;99282;-84
2023/09/29 08:18:48;;;;;;;23.40;14.70;;;;;;;18.48;99.71;101184.98;105768;1266;101346;-82
2023/09/29 08:21:34;;;;;;;22.30;12.90;;;;;;;18.60;98.58;101185.80;105991;1266;99143;-84
2023/09/29 08:24:19;;;;;;;19.70;13.30;;;;;;;18.72;97.64;101186.59;105630;1261;99121;-85
2023/09/29 08:27:06;;;;;;;19.40;12.70;;;;;;;18.84;97.13;101184.99;106117;1262;98026;-88
2023/09/29 08:29:52;;;;;;;21.60;12.60;;;;;;;18.97;97.21;101184.52;105920;1262;98423;-84
2023/09/29 08:32:39;;;;;;;18.10;12.40;;;;;;;19.11;96.61;101189.72;105831;1264;103329;-82
2023/09/29 08:35:27;;;;;;;21.40;12.30;;;;;;;19.26;95.50;101186.81;105978;1262;99234;-84
2023/09/29 08:38:13;;;;;;;18.60;12.00;;;;;;;19.39;94.67;101189.05;105738;1267;98048;-88
2023/09/29 08:41:02;;;;;;;20.90;10.50;;;;;;;19.53;94.06;101189.44;105904;1267;97897;-91
2023/09/29 08:43:49;;;;;;;11.30;9.70;;;;;;;19.68;93.69;101188.45;106184;1261;97990;-88
2023/09/29 08:47:10;;;;;;;14.90;10.70;;;;;;;19.84;92.60;101186.33;106346;1261;103701;-90
2023/09/29 08:49:57;;;;;;;16.60;9.80;;;;;;;19.99;90.88;101184.02;106498;1261;110651;-87
2023/09/29 08:52:45;;;;;;;14.10;8.80;;;;;;;20.09;90.56;101184.16;106239;1262;98026;-88
2023/09/29 08:55:31;;;;;;;14.80;8.70;;;;;;;20.24;90.31;101179.96;106401;1262;97958;-91
2023/09/29 08:58:18;;;;;;;11.90;9.20;;;;;;;20.39;88.94;101180.02;106033;1264;98414;-86
2023/09/29 09:01:05;;;;;;;13.20;8.90;;;;;;;20.56;87.85;101177.28;106153;1261;110202;-88
2023/09/29 09:03:51;;;;;;;21.00;8.70;;;;;;;20.68;86.92;101176.88;106256;1262;100462;-87
2023/09/29 09:06:37;;;;;;;12.10;7.90;;;;;;;20.82;85.86;101176.23;105834;1264;100193;-91
2023/09/29 09:09:24;;;;;;;15.20;8.40;;;;;;;20.96;84.63;101175.33;105893;1262;98587;-86
2023/09/29 09:12:10;;;;;;;14.20;7.90;;;;;;;21.06;83.72;101171.10;106077;1267;99681;-90
2023/09/29 09:14:56;;;;;;;14.90;7.30;;;;;;;21.17;82.24;101170.30;105915;1267;101542;-87
2023/09/29 09:17:42;;;;;;;11.30;7.50;;;;;;;21.28;81.99;101169.05;105916;1261;99888;-86
2023/09/29 09:20:27;;;;;;;10.80;7.10;;;;;;;21.39;81.74;101167.58;106307;1267;99808;-87
2023/09/29 09:23:14;;;;;;;12.70;6.90;;;;;;;21.51;80.57;101169.70;105788;1261;97901;-85
2023/09/29 09:26:14;;;;;;;11.60;6.80;;;;;;;21.62;79.40;101167.11;105903;1262;97987;-85
2023/09/29 09:29:08;;;;;;;12.30;6.20;;;;;;;21.76;78.58;101162.63;105902;1262;102194;-85
2023/09/29 09:31:55;;;;;;;16.20;7.00;;;;;;;21.89;77.46;101158.13;106273;1266;99302;-86
2023/09/29 09:34:42;;;;;;;11.80;7.20;;;;;;;22.00;76.47;101158.48;105967;1262;98056;-85
2023/09/29 09:37:28;;;;;;;13.60;7.20;;;;;;;22.07;75.81;101153.80;105909;1261;97981;-84
2023/09/29 09:40:15;;;;;;;12.60;6.50;;;;;;;22.18;75.13;101148.78;105856;1265;96497;-84
2023/09/29 09:43:05;;;;;;;12.50;6.80;;;;;;;22.27;73.42;101148.87;106558;1264;101433;-85
2023/09/29 09:46:02;;;;;;;9.00;6.40;;;;;;;22.37;72.75;101150.76;105796;1261;99273;-85
2023/09/29 09:48:55;;;;;;;13.00;6.80;;;;;;;22.45;72.43;101146.71;106148;1263;99012;-87
2023/09/29 09:51:47;;;;;;;14.30;6.40;;;;;;;22.53;71.76;101146.57;105884;1262;97991;-86
2023/09/29 09:54:43;;;;;;;8.60;6.90;;;;;;;22.62;71.49;101147.10;106590;1262;97933;-92
2023/09/29 09:57:34;;;;;;;9.00;6.50;;;;;;;22.72;70.21;101142.38;106226;1267;103209;-86
2023/09/29 10:00:24;;;;;;;13.30;5.90;;;;;;;22.83;69.41;101140.73;106092;1262;101553;-91
2023/09/29 10:03:12;;;;;;;7.20;6.10;;;;;;;22.91;69.14;101141.91;106200;1262;98956;-85
2023/09/29 10:05:58;;;;;;;13.80;5.90;;;;;;;22.97;68.20;101141.05;106077;1264;97972;-87
2023/09/29 10:08:46;;;;;;;11.30;6.70;;;;;;;23.04;67.57;101134.52;106022;1267;98064;-86
2023/09/29 10:11:32;;;;;;;11.20;6.70;;;;;;;23.13;67.42;101135.56;106113;1262;101431;-86
2023/09/29 10:14:18;;;;;;;14.10;7.00;;;;;;;23.21;67.23;101134.94;105956;1264;99996;-89
2023/09/29 10:17:06;;;;;;;19.70;6.40;;;;;;;23.27;67.00;101131.07;106599;1261;98901;-89
2023/09/29 10:19:54;;;;;;;12.10;6.50;;;;;;;23.33;66.45;101129.40;106545;1261;98063;-88
2023/09/29 10:22:40;;;;;;;10.00;6.00;;;;;;;23.39;65.80;101124.98;106442;1264;98454;-85
2023/09/29 10:25:26;;;;;;;13.10;6.20;;;;;;;23.44;65.80;101122.70;106249;1262;101392;-88
2023/09/29 10:28:12;;;;;;;10.70;5.90;;;;;;;23.51;65.70;101121.50;106204;1267;100478;-88
2023/09/29 10:31:15;;;;;;;15.10;6.20;;;;;;;23.58;65.32;101118.34;106434;1261;97793;-93
2023/09/29 10:34:01;;;;;;;11.60;6.00;;;;;;;23.67;64.30;101117.27;106645;1267;97804;-88
2023/09/29 10:36:55;;;;;;;13.30;6.40;;;;;;;23.74;63.58;101120.40;106505;1261;96718;-92
2023/09/29 10:39:44;;;;;;;13.80;5.80;;;;;;;23.80;62.92;101118.09;106830;1262;101424;-87
2023/09/29 10:42:38;;;;;;;11.20;5.90;;;;;;;23.84;61.94;101118.17;106165;1261;99785;-89
2023/09/29 10:45:30;;;;;;;8.80;5.80;;;;;;;23.89;61.06;101114.16;105994;1264;98321;-84
2023/09/29 10:48:26;;;;;;;13.20;5.50;;;;;;;23.93;60.03;101110.80;106156;1266;97975;-87
2023/09/29 10:51:24;;;;;;;10.20;5.50;;;;;;;24.00;59.47;101106.15;106039;1265;97924;-93
2023/09/29 10:54:10;;;;;;;8.20;5.60;;;;;;;24.06;59.42;101099.33;106398;1261;101434;-90
2023/09/29 10:56:57;;;;;;;12.60;5.40;;;;;;;24.12;59.40;101099.54;106519;1267;100363;-88
2023/09/29 10:59:50;;;;;;;11.50;5.50;;;;;;;24.18;59.07;101098.09;106375;1261;97962;-93
2023/09/29 11:02:36;;;;;;;6.60;4.70;;;;;;;24.24;58.73;101093.38;106324;1267;97986;-91
2023/09/29 11:05:22;;;;;;;9.60;5.60;;;;;;;24.30;58.04;101091.00;106151;1261;97892;-90
2023/09/29 11:08:10;;;;;;;9.80;5.10;;;;;;;24.37;57.24;101087.09;106427;1261;101468;-89
2023/09/29 11:11:03;;;;;;;7.00;5.70;;;;;;;24.43;56.13;101084.94;106610;1262;100129;-90
2023/09/29 11:13:58;;;;;;;8.30;5.10;;;;;;;24.46;55.72;101077.94;106449;1260;99608;-94
2023/09/29 11:16:57;;;;;;;8.10;4.90;;;;;;;24.51;55.62;101072.98;105925;1267;97873;-87
2023/09/29 11:19:54;;;;;;;11.90;5.00;;;;;;;24.56;55.61;101073.60;106196;1262;98010;-90
2023/09/29 11:22:42;;;;;;;10.70;6.40;;;;;;;24.63;54.42;101068.47;105881;1262;110027;-84
2023/09/29 11:25:54;;;;;;;11.80;7.20;;;;;;;24.68;53.82;101064.88;106365;1266;100247;-83
2023/09/29 11:28:42;;;;;;;12.50;6.00;;;;;;;24.73;53.61;101059.71;106106;1266;99459;-82
2023/09/29 11:31:27;;;;;;;9.90;5.70;;;;;;;24.78;53.65;101050.91;106258;1262;97887;-83
2023/09/29 11:34:15;;;;;;;9.30;5.10;;;;;;;24.84;53.93;101050.00;106119;1264;98498;-87
2023/09/29 11:37:00;;;;;;;10.80;4.50;;;;;;;24.89;53.83;101043.55;106508;1262;102628;-91
2023/09/29 11:39:46;;;;;;;9.40;4.40;;;;;;;24.93;53.26;101038.63;106626;1262;99305;-89
2023/09/29 11:42:36;;;;;;;8.80;4.70;;;;;;;24.99;52.84;101034.42;106348;1265;97987;-87
2023/09/29 11:45:22;;;;;;;7.30;4.30;;;;;;;25.07;52.14;101032.36;106039;1262;98554;-89
2023/09/29 11:48:08;;;;;;;12.70;5.20;;;;;;;25.12;51.43;101031.15;106347;1265;98509;-87
2023/09/29 11:50:54;;;;;;;8.60;4.20;;;;;;;25.16;50.75;101023.48;105854;1260;101449;-88
2023/09/29 11:53:40;;;;;;;10.30;4.20;;;;;;;25.19;50.16;101023.11;106164;1264;100466;-89
2023/09/29 11:56:28;;;;;;;9.00;3.90;;;;;;;25.22;49.53;101018.01;106778;1265;98500;-94
2023/09/29 11:59:13;;;;;;;11.70;3.80;;;;;;;25.25;48.83;101014.71;106935;1262;97984;-91
2023/09/29 12:02:00;;;;;;;7.60;4.20;;;;;;;25.30;49.08;101012.09;106182;1261;98084;-89
2023/09/29 12:04:47;;;;;;;5.50;4.10;;;;;;;25.37;48.89;101011.60;106560;1261;103749;-87
2023/09/29 12:07:35;;;;;;;6.00;4.20;;;;;;;25.40;48.67;101006.48;106812;1261;99644;-93
2023/09/29 12:10:33;;;;;;;10.50;4.30;;;;;;;25.40;48.13;101002.27;106860;1261;100166;-93
2023/09/29 12:13:19;;;;;;;9.80;4.30;;;;;;;25.42;47.79;101000.55;106123;1267;97956;-88
2023/09/29 12:16:09;;;;;;;7.70;3.90;;;;;;;25.44;47.31;100998.75;106318;1261;98056;-91
2023/09/29 12:18:56;;;;;;;6.60;4.60;;;;;;;25.49;47.45;100992.59;106455;1262;102061;-89
2023/09/29 12:21:45;;;;;;;7.00;4.30;;;;;;;25.54;47.54;100990.39;106450;1267;101543;-92
2023/09/29 12:24:31;;;;;;;13.30;5.10;;;;;;;25.60;47.30;100988.95;106191;1261;97949;-91
2023/09/29 12:27:17;;;;;;;10.40;4.10;;;;;;;25.62;47.10;100985.55;106671;1264;97907;-91
2023/09/29 12:30:05;;;;;;;7.70;4.50;;;;;;;25.64;46.72;100986.86;106562;1267;98017;-93
2023/09/29 12:32:57;;;;;;;9.60;3.80;;;;;;;25.67;46.87;100983.14;106678;1267;102554;-93